Time;durP1;ratioP1;P1;durP2;ratioP2;P2;SDS_P1;SDS_P2;PMS_P1;PMS_P2;Temp;Humidity;BMP_temperature;BMP_pressure;BME280_temperature;BME280_humidity;BME280_pressure;Samples;Min_cycle;Max_cycle;Signal;HPM_P1;HPM_P2
2023/09/24 00:00:20;;;;;;;3.53;1.10;;;;;;;13.25;72.90;98240.84;6218394;28;20212;-55
2023/09/24 00:03:25;;;;;;;0.83;0.73;;;;;;;13.20;73.71;98246.09;6222153;28;20229;-56
2023/09/24 00:06:28;;;;;;;2.30;1.10;;;;;;;13.18;72.72;98238.34;6254159;28;20231;-57
2023/09/24 00:09:31;;;;;;;1.83;0.90;;;;;;;13.24;72.86;98232.03;6218814;28;20224;-58
2023/09/24 00:12:33;;;;;;;1.80;1.10;;;;;;;13.33;71.53;98229.75;6219257;28;20307;-55
2023/09/24 00:15:35;;;;;;;1.10;1.00;;;;;;;13.08;72.05;98214.91;6250628;28;20239;-57
2023/09/24 00:18:38;;;;;;;1.77;1.30;;;;;;;13.24;71.98;98253.44;6215524;28;20236;-57
2023/09/24 00:21:40;;;;;;;1.07;0.90;;;;;;;13.18;73.29;98265.88;6225166;28;20231;-58
2023/09/24 00:24:43;;;;;;;3.40;0.90;;;;;;;13.12;75.04;98256.16;6221422;28;20220;-57
2023/09/24 00:27:45;;;;;;;2.03;0.83;;;;;;;13.10;73.90;98255.63;6222911;28;20792;-57
2023/09/24 00:30:50;;;;;;;1.67;1.10;;;;;;;13.28;71.60;98251.09;6223446;28;20320;-58
2023/09/24 00:33:52;;;;;;;2.00;1.10;;;;;;;13.43;69.84;98248.63;6223581;28;20295;-55
2023/09/24 00:36:57;;;;;;;2.07;1.10;;;;;;;13.33;70.79;98246.63;6223725;28;20247;-54
2023/09/24 00:40:00;;;;;;;2.47;1.00;;;;;;;13.36;70.91;98232.75;6225807;28;20232;-58
2023/09/24 00:43:03;;;;;;;1.90;1.13;;;;;;;13.29;71.09;98231.28;6222078;28;20251;-56
2023/09/24 00:46:09;;;;;;;1.97;1.20;;;;;;;13.32;70.22;98242.31;6224228;28;20270;-58
2023/09/24 00:49:15;;;;;;;3.77;1.23;;;;;;;13.37;69.77;98239.72;6225097;28;20226;-57
2023/09/24 00:52:17;;;;;;;1.03;0.90;;;;;;;13.32;70.30;98242.31;6225713;28;20243;-60
2023/09/24 00:55:20;;;;;;;3.00;1.27;;;;;;;13.38;69.60;98230.63;6224860;28;20675;-58
2023/09/24 00:58:25;;;;;;;1.33;0.93;;;;;;;13.08;69.33;98198.06;6223261;28;20231;-58
2023/09/24 01:01:29;;;;;;;1.30;1.00;;;;;;;13.25;70.64;98230.16;6222656;28;20339;-57
2023/09/24 01:04:33;;;;;;;1.30;1.20;;;;;;;13.16;70.59;98238.59;6226321;28;20285;-55
2023/09/24 01:07:36;;;;;;;1.60;1.20;;;;;;;13.11;70.92;98227.00;6221490;28;20281;-58
2023/09/24 01:10:39;;;;;;;2.00;1.10;;;;;;;13.28;68.86;98224.31;6223948;28;20238;-57
2023/09/24 01:13:43;;;;;;;2.67;1.10;;;;;;;13.13;72.40;98217.66;6226302;28;20235;-54
2023/09/24 01:16:46;;;;;;;1.73;1.07;;;;;;;13.00;70.93;98199.25;6224822;28;20238;-56
2023/09/24 01:19:52;;;;;;;2.00;1.07;;;;;;;13.09;70.65;98200.47;6220687;28;20231;-55
2023/09/24 01:22:54;;;;;;;1.37;1.03;;;;;;;13.09;70.48;98207.69;6225896;28;20224;-58
2023/09/24 01:25:57;;;;;;;2.20;1.03;;;;;;;13.00;71.88;98220.66;6224903;28;20233;-57
2023/09/24 01:29:00;;;;;;;1.10;0.97;;;;;;;12.98;71.54;98222.78;6257224;28;20219;-58
2023/09/24 01:32:04;;;;;;;1.03;1.00;;;;;;;12.93;72.73;98228.06;6227109;28;20224;-58
2023/09/24 01:35:11;;;;;;;2.77;1.27;;;;;;;12.95;71.52;98230.47;6230137;28;20713;-55
2023/09/24 01:38:13;;;;;;;1.50;1.03;;;;;;;12.88;73.40;98250.16;6225650;28;20754;-58
2023/09/24 01:41:16;;;;;;;2.10;0.97;;;;;;;12.90;71.97;98253.41;6232720;28;20235;-58
2023/09/24 01:44:21;;;;;;;1.40;1.00;;;;;;;12.94;71.24;98258.28;6246780;28;20216;-58
2023/09/24 01:47:24;;;;;;;1.53;1.00;;;;;;;12.92;70.95;98253.19;6229151;28;20359;-56
2023/09/24 01:50:29;;;;;;;1.40;0.93;;;;;;;12.89;71.08;98259.81;6229878;28;20242;-58
2023/09/24 01:53:32;;;;;;;1.87;0.90;;;;;;;12.85;71.80;98250.63;6226479;28;20248;-56
2023/09/24 01:56:36;;;;;;;1.20;0.93;;;;;;;12.84;71.87;98245.53;6225348;28;20231;-57
2023/09/24 01:59:38;;;;;;;1.73;1.13;;;;;;;12.79;71.65;98246.28;6227078;28;20220;-57
2023/09/24 02:02:42;;;;;;;1.80;0.90;;;;;;;12.80;71.29;98239.88;6226952;28;20336;-54
2023/09/24 02:05:45;;;;;;;2.50;1.10;;;;;;;12.79;71.10;98243.59;6223796;28;20254;-56
2023/09/24 02:08:48;;;;;;;1.13;1.00;;;;;;;12.76;72.85;98249.44;6228424;28;20251;-56
2023/09/24 02:11:53;;;;;;;2.13;1.20;;;;;;;12.76;71.88;98238.75;6230278;28;20220;-54
2023/09/24 02:14:56;;;;;;;3.43;1.00;;;;;;;12.75;72.21;98238.97;6261116;28;20227;-58
2023/09/24 02:17:59;;;;;;;1.63;1.00;;;;;;;12.68;73.08;98244.47;6228821;28;20235;-58
2023/09/24 02:21:07;;;;;;;1.70;0.83;;;;;;;12.67;73.89;98245.53;6258322;28;20227;-57
2023/09/24 02:24:10;;;;;;;1.97;0.97;;;;;;;12.78;72.17;98225.94;6232139;28;20222;-57
2023/09/24 02:27:12;;;;;;;1.60;1.10;;;;;;;12.79;71.45;98222.22;6252610;28;20212;-56
2023/09/24 02:30:15;;;;;;;1.87;1.00;;;;;;;12.81;71.64;98232.69;6226706;28;20208;-56
2023/09/24 02:33:18;;;;;;;1.63;1.10;;;;;;;12.70;72.71;98244.22;6226186;28;20261;-58
2023/09/24 02:36:21;;;;;;;1.30;1.13;;;;;;;12.60;74.01;98251.03;6225538;28;20313;-53
2023/09/24 02:39:23;;;;;;;2.30;1.20;;;;;;;12.71;71.42;98249.34;6226827;28;20228;-57
2023/09/24 02:42:26;;;;;;;2.90;1.10;;;;;;;12.69;72.64;98250.63;6231206;28;20228;-52
2023/09/24 02:45:30;;;;;;;2.50;1.37;;;;;;;12.67;71.93;98244.72;6228083;28;20231;-58
2023/09/24 02:48:33;;;;;;;1.97;0.90;;;;;;;12.64;72.06;98251.34;6224648;28;20231;-57
2023/09/24 02:51:35;;;;;;;1.20;0.70;;;;;;;12.56;73.44;98257.91;6227257;28;20235;-57
2023/09/24 02:54:38;;;;;;;2.30;1.30;;;;;;;12.51;73.81;98270.34;6222593;28;20231;-56
2023/09/24 02:57:46;;;;;;;1.50;0.93;;;;;;;12.33;73.98;98252.69;6225087;28;20224;-57
2023/09/24 03:00:50;;;;;;;2.10;1.30;;;;;;;12.55;73.14;98280.31;6223390;28;20220;-56
2023/09/24 03:03:53;;;;;;;1.50;1.03;;;;;;;12.40;73.52;98277.38;6219227;28;20232;-53
2023/09/24 03:06:56;;;;;;;1.70;1.00;;;;;;;12.47;73.43;98280.72;6252793;28;20235;-57
2023/09/24 03:09:58;;;;;;;2.03;1.00;;;;;;;12.34;72.95;98257.78;6222237;28;20566;-56
2023/09/24 03:13:02;;;;;;;1.47;0.90;;;;;;;12.45;74.33;98272.13;6223022;28;20232;-58
2023/09/24 03:16:05;;;;;;;1.03;0.93;;;;;;;12.40;74.45;98278.19;6250372;28;20274;-54
2023/09/24 03:19:09;;;;;;;1.27;0.90;;;;;;;12.47;73.20;98288.75;6222077;28;20879;-55
2023/09/24 03:22:11;;;;;;;2.27;1.20;;;;;;;12.49;73.58;98285.84;6221329;28;20240;-57
2023/09/24 03:25:21;;;;;;;3.80;1.20;;;;;;;12.41;72.70;98276.31;6222041;28;20739;-58
2023/09/24 03:28:23;;;;;;;0.90;0.80;;;;;;;12.43;73.68;98295.63;6218973;28;20232;-55
2023/09/24 03:31:26;;;;;;;2.57;1.17;;;;;;;12.43;73.56;98294.81;6222425;28;20234;-56
2023/09/24 03:34:28;;;;;;;2.20;1.00;;;;;;;12.35;74.74;98299.47;6222809;28;20324;-57
2023/09/24 03:37:31;;;;;;;2.03;1.00;;;;;;;12.30;75.64;98301.22;6248702;28;20824;-57
2023/09/24 03:40:34;;;;;;;1.33;0.83;;;;;;;12.34;74.83;98310.41;6220817;28;20234;-58
2023/09/24 03:43:37;;;;;;;3.73;1.40;;;;;;;12.36;74.26;98305.63;6221224;28;20315;-55
2023/09/24 03:46:39;;;;;;;1.40;1.00;;;;;;;12.20;74.33;98298.34;6221744;28;20230;-58
2023/09/24 03:49:42;;;;;;;2.00;1.13;;;;;;;12.34;73.16;98313.06;6223482;28;20227;-55
2023/09/24 03:52:49;;;;;;;1.00;0.83;;;;;;;12.31;73.86;98317.00;6224879;28;20235;-57
2023/09/24 03:55:53;;;;;;;2.43;1.20;;;;;;;12.28;76.49;98322.03;6223654;28;20626;-55
2023/09/24 03:58:55;;;;;;;3.50;1.10;;;;;;;12.35;73.50;98307.47;6215259;28;20243;-56
2023/09/24 04:01:58;;;;;;;2.40;1.10;;;;;;;12.30;74.76;98317.25;6209521;28;20232;-57
2023/09/24 04:05:00;;;;;;;1.73;0.97;;;;;;;12.30;73.92;98320.75;6214340;28;20215;-54
2023/09/24 04:08:05;;;;;;;1.30;0.87;;;;;;;12.29;74.22;98319.13;6219825;28;20693;-57
2023/09/24 04:11:12;;;;;;;1.07;0.80;;;;;;;12.27;74.15;98323.09;6214638;28;20290;-55
2023/09/24 04:14:14;;;;;;;3.90;1.23;;;;;;;12.09;73.62;98305.34;6225237;28;20277;-57
2023/09/24 04:17:17;;;;;;;1.77;1.07;;;;;;;12.31;74.26;98330.38;6215723;28;20235;-58
2023/09/24 04:20:20;;;;;;;1.93;1.03;;;;;;;12.22;74.65;98320.31;6218877;28;20229;-57
2023/09/24 04:23:24;;;;;;;2.40;1.00;;;;;;;12.21;74.50;98329.34;6223373;28;20905;-56
2023/09/24 04:26:26;;;;;;;1.90;1.07;;;;;;;12.20;75.60;98328.56;6218110;28;20843;-57
2023/09/24 04:29:29;;;;;;;1.57;0.90;;;;;;;12.21;75.61;98329.34;6224618;28;20223;-58
2023/09/24 04:32:31;;;;;;;1.33;1.10;;;;;;;12.29;74.42;98342.34;6221477;28;20448;-57
2023/09/24 04:35:34;;;;;;;1.27;0.90;;;;;;;12.01;75.18;98301.19;6228030;28;20240;-55
2023/09/24 04:38:37;;;;;;;2.53;1.03;;;;;;;12.16;76.45;98346.09;6219834;28;20216;-57
2023/09/24 04:41:40;;;;;;;1.70;1.20;;;;;;;12.31;74.93;98353.59;6210343;28;20224;-58
2023/09/24 04:44:42;;;;;;;2.13;0.87;;;;;;;12.22;75.48;98355.06;6216200;28;20635;-54
2023/09/24 04:47:45;;;;;;;4.73;1.20;;;;;;;12.19;75.15;98356.31;6213177;28;20791;-51
2023/09/24 04:50:48;;;;;;;2.03;1.10;;;;;;;12.16;75.54;98361.31;6221766;28;20609;-56
2023/09/24 04:53:51;;;;;;;2.40;0.97;;;;;;;12.26;74.63;98362.31;6219305;28;20236;-55
2023/09/24 04:56:54;;;;;;;1.50;0.80;;;;;;;12.17;76.40;98365.59;6218111;28;20769;-58
2023/09/24 04:59:57;;;;;;;1.80;0.90;;;;;;;12.18;76.26;98370.72;6252478;28;20227;-54
2023/09/24 05:02:59;;;;;;;2.63;0.87;;;;;;;12.11;76.60;98368.16;6217355;28;20303;-57
2023/09/24 05:06:05;;;;;;;2.70;1.10;;;;;;;12.11;77.26;98386.84;6223965;28;20216;-53
2023/09/24 05:09:07;;;;;;;2.97;1.07;;;;;;;12.14;76.91;98386.41;6231105;28;20903;-58
2023/09/24 05:12:12;;;;;;;1.30;0.83;;;;;;;12.12;76.30;98387.69;6225632;28;20216;-58
2023/09/24 05:15:14;;;;;;;1.50;1.03;;;;;;;12.15;76.37;98392.56;6236049;28;20321;-58
2023/09/24 05:18:17;;;;;;;2.73;1.10;;;;;;;12.15;76.79;98400.56;6259717;28;20405;-55
2023/09/24 05:21:22;;;;;;;2.10;1.00;;;;;;;12.20;76.33;98397.19;6229580;28;20310;-57
2023/09/24 05:24:24;;;;;;;2.90;0.90;;;;;;;12.23;75.46;98396.75;6231863;28;20247;-57
2023/09/24 05:27:29;;;;;;;2.93;1.10;;;;;;;12.16;77.18;98396.84;6228191;28;20240;-57
2023/09/24 05:30:31;;;;;;;1.53;1.30;;;;;;;12.18;75.55;98404.63;6221119;28;20223;-57
2023/09/24 05:33:34;;;;;;;1.60;1.00;;;;;;;12.13;77.32;98408.81;6224621;28;20242;-57
2023/09/24 05:36:37;;;;;;;1.33;1.23;;;;;;;12.09;76.63;98401.50;6229110;28;20338;-57
2023/09/24 05:39:39;;;;;;;1.63;1.20;;;;;;;12.14;76.98;98420.31;6225292;28;20228;-54
2023/09/24 05:42:42;;;;;;;1.07;0.93;;;;;;;12.18;76.24;98420.66;6220667;28;20788;-56
2023/09/24 05:45:48;;;;;;;1.10;0.93;;;;;;;12.17;75.79;98424.34;6230151;28;20311;-55
2023/09/24 05:48:55;;;;;;;1.67;1.20;;;;;;;12.17;76.59;98419.84;6227711;28;20236;-57
2023/09/24 05:51:57;;;;;;;1.97;1.07;;;;;;;12.20;75.93;98429.25;6262543;28;20258;-57
2023/09/24 05:55:04;;;;;;;1.57;0.97;;;;;;;12.26;77.19;98436.31;6231514;28;20247;-57
2023/09/24 05:58:16;;;;;;;3.23;1.20;;;;;;;12.22;76.31;98429.84;6226993;28;20232;-55
2023/09/24 06:01:23;;;;;;;2.17;1.23;;;;;;;12.24;75.90;98438.44;6226583;28;20366;-58
2023/09/24 06:04:26;;;;;;;3.33;1.07;;;;;;;12.19;77.83;98440.97;6228389;28;20226;-50
2023/09/24 06:07:28;;;;;;;1.53;1.30;;;;;;;12.18;77.82;98439.38;6229275;28;20235;-54
2023/09/24 06:10:31;;;;;;;1.77;1.07;;;;;;;12.25;76.86;98448.88;6231242;28;20231;-55
2023/09/24 06:13:34;;;;;;;1.00;0.90;;;;;;;12.23;76.87;98458.97;6229199;28;20231;-55
2023/09/24 06:16:36;;;;;;;1.90;1.00;;;;;;;12.24;77.49;98459.78;6262971;28;20708;-52
2023/09/24 06:19:39;;;;;;;1.20;0.80;;;;;;;12.25;77.14;98461.41;6227283;28;20220;-55
2023/09/24 06:22:43;;;;;;;2.90;1.13;;;;;;;12.23;77.17;98460.84;6228585;28;20223;-55
2023/09/24 06:25:46;;;;;;;1.00;0.90;;;;;;;12.24;77.47;98468.63;6221782;28;20305;-53
2023/09/24 06:28:48;;;;;;;1.57;0.97;;;;;;;12.28;77.18;98469.78;6220107;28;20349;-54
2023/09/24 06:32:11;;;;;;;1.97;1.23;;;;;;;12.31;76.23;98471.16;6236919;28;20248;-55
2023/09/24 06:35:13;;;;;;;2.43;0.90;;;;;;;12.30;77.54;98474.88;6221098;28;20227;-56
2023/09/24 06:38:16;;;;;;;1.87;1.07;;;;;;;12.32;77.32;98489.66;6223764;28;20238;-52
2023/09/24 06:41:18;;;;;;;3.30;1.57;;;;;;;12.13;76.04;98466.78;6228366;28;20232;-54
2023/09/24 06:44:22;;;;;;;1.83;0.97;;;;;;;12.45;75.66;98487.78;6220093;28;20219;-52
2023/09/24 06:47:28;;;;;;;2.50;1.27;;;;;;;12.37;76.55;98480.94;6217500;28;20240;-52
2023/09/24 06:50:30;;;;;;;3.23;1.13;;;;;;;12.36;76.55;98490.81;6222438;28;20231;-54
2023/09/24 06:53:38;;;;;;;1.23;1.07;;;;;;;12.34;76.26;98487.53;6227457;28;20326;-54
2023/09/24 06:56:45;;;;;;;2.40;1.03;;;;;;;12.35;76.80;98491.84;6226154;28;20233;-52
2023/09/24 06:59:47;;;;;;;1.70;1.03;;;;;;;12.40;77.50;98499.97;6220416;28;20227;-55
2023/09/24 07:02:50;;;;;;;1.30;0.90;;;;;;;12.42;76.01;98498.94;6232517;28;20716;-55
2023/09/24 07:05:53;;;;;;;1.90;1.00;;;;;;;12.40;76.92;98507.97;6219721;28;20307;-54
2023/09/24 07:08:56;;;;;;;1.73;1.10;;;;;;;12.46;76.09;98519.59;6233912;28;20231;-54
2023/09/24 07:11:59;;;;;;;3.07;1.03;;;;;;;12.46;76.60;98519.59;6223262;28;20227;-54
2023/09/24 07:15:01;;;;;;;3.50;1.60;;;;;;;12.47;75.95;98510.56;6219925;28;20219;-51
2023/09/24 07:18:04;;;;;;;2.50;1.00;;;;;;;12.48;77.23;98500.69;6221678;28;20674;-52
2023/09/24 07:21:07;;;;;;;1.90;0.93;;;;;;;12.56;76.87;98513.66;6230618;28;20208;-53
2023/09/24 07:24:24;;;;;;;1.63;1.00;;;;;;;12.59;76.32;98521.22;6223287;28;20602;-54
2023/09/24 07:27:27;;;;;;;3.37;1.03;;;;;;;12.57;76.12;98534.03;6225549;28;20311;-54
2023/09/24 07:30:33;;;;;;;4.23;1.10;;;;;;;12.57;76.21;98540.19;6228259;28;20476;-54
2023/09/24 07:33:35;;;;;;;2.57;1.23;;;;;;;12.59;77.19;98537.25;6221633;28;20314;-49
2023/09/24 07:36:38;;;;;;;1.20;0.97;;;;;;;12.59;76.95;98546.09;6223500;28;20244;-53
2023/09/24 07:40:05;;;;;;;2.03;1.00;;;;;;;12.56;76.42;98535.03;6227358;28;20224;-53
2023/09/24 07:43:08;;;;;;;1.83;0.80;;;;;;;12.58;77.35;98547.16;6223954;28;20244;-54
2023/09/24 07:46:12;;;;;;;1.93;1.10;;;;;;;12.61;76.58;98544.03;6226353;28;20892;-55
2023/09/24 07:49:15;;;;;;;1.83;1.13;;;;;;;12.70;76.23;98547.13;6215280;28;20228;-53
2023/09/24 07:52:17;;;;;;;1.60;1.10;;;;;;;12.61;76.56;98535.16;6219338;28;20236;-54
2023/09/24 07:55:20;;;;;;;2.70;1.00;;;;;;;12.59;78.16;98543.41;6221506;28;20577;-53
2023/09/24 07:58:25;;;;;;;5.97;1.37;;;;;;;12.60;76.90;98537.03;6225068;28;20227;-55
2023/09/24 08:01:28;;;;;;;2.33;1.00;;;;;;;12.65;76.30;98549.69;6226333;28;20258;-53
2023/09/24 08:04:30;;;;;;;1.40;0.93;;;;;;;12.71;76.31;98550.63;6229617;28;20693;-47
2023/09/24 08:07:36;;;;;;;1.37;1.00;;;;;;;12.74;75.77;98556.31;6223116;28;20232;-55
2023/09/24 08:10:38;;;;;;;2.37;1.07;;;;;;;12.74;76.11;98558.19;6223528;28;20224;-55
2023/09/24 08:13:41;;;;;;;4.07;1.57;;;;;;;12.89;74.49;98561.19;6214912;28;20227;-52
2023/09/24 08:16:44;;;;;;;2.07;1.10;;;;;;;12.51;76.42;98513.56;6220307;28;20255;-55
2023/09/24 08:19:46;;;;;;;1.33;0.97;;;;;;;12.87;77.20;98571.31;6218305;28;20275;-56
2023/09/24 08:22:49;;;;;;;6.40;1.30;;;;;;;12.91;76.52;98556.44;6220899;28;20228;-51
2023/09/24 08:25:51;;;;;;;3.40;1.40;;;;;;;12.94;75.59;98571.16;6218086;28;20893;-54
2023/09/24 08:28:54;;;;;;;1.73;1.30;;;;;;;12.97;75.85;98568.84;6215721;28;20560;-52
2023/09/24 08:31:56;;;;;;;1.87;1.00;;;;;;;13.04;75.32;98566.84;6216702;28;20269;-55
2023/09/24 08:35:00;;;;;;;1.30;0.97;;;;;;;13.04;75.59;98577.53;6217642;28;20231;-54
2023/09/24 08:38:03;;;;;;;2.47;1.10;;;;;;;13.02;75.59;98568.97;6224211;28;20290;-54
2023/09/24 08:41:12;;;;;;;1.93;1.00;;;;;;;13.01;75.31;98582.56;6219570;28;20232;-50
2023/09/24 08:44:17;;;;;;;3.83;1.27;;;;;;;13.08;75.30;98575.22;6227898;28;20228;-50
2023/09/24 08:47:21;;;;;;;2.00;1.40;;;;;;;13.06;74.57;98572.78;6220493;28;20240;-55
2023/09/24 08:50:24;;;;;;;2.47;1.30;;;;;;;12.95;74.94;98554.06;6211501;28;20655;-52
2023/09/24 08:53:30;;;;;;;2.33;1.20;;;;;;;12.99;75.88;98576.63;6217812;28;20224;-52
2023/09/24 08:56:32;;;;;;;2.60;1.17;;;;;;;12.95;76.26;98576.28;6221204;28;20236;-53
2023/09/24 08:59:35;;;;;;;1.73;1.10;;;;;;;12.99;75.46;98580.13;6222431;28;20247;-57
2023/09/24 09:02:41;;;;;;;1.63;1.00;;;;;;;13.00;75.47;98572.91;6216062;28;20235;-55
2023/09/24 09:05:44;;;;;;;3.27;1.20;;;;;;;12.97;75.74;98579.56;6218731;28;20235;-52
2023/09/24 09:08:50;;;;;;;2.93;1.20;;;;;;;12.98;75.41;98578.50;6212914;28;20228;-55
2023/09/24 09:11:54;;;;;;;2.37;1.17;;;;;;;12.99;74.73;98582.78;6215663;28;20224;-55
2023/09/24 09:14:57;;;;;;;1.93;1.40;;;;;;;12.96;75.21;98574.44;6209814;28;20224;-53
2023/09/24 09:18:01;;;;;;;2.00;0.90;;;;;;;12.95;75.39;98580.81;6218407;28;20372;-56
2023/09/24 09:21:03;;;;;;;1.67;1.10;;;;;;;12.93;75.57;98569.56;6245590;28;20369;-53
2023/09/24 09:24:21;;;;;;;4.10;1.00;;;;;;;12.91;76.74;98559.09;6239882;28;20223;-52
2023/09/24 09:27:33;;;;;;;1.67;1.33;;;;;;;12.95;74.39;98568.25;6246363;28;20226;-54
2023/09/24 09:30:35;;;;;;;2.53;1.30;;;;;;;12.91;75.22;98557.22;6245187;28;20231;-52
2023/09/24 09:33:42;;;;;;;4.87;1.40;;;;;;;12.77;75.12;98542.50;6243447;28;20230;-57
2023/09/24 09:36:45;;;;;;;2.60;1.03;;;;;;;12.90;75.65;98554.78;6240131;28;20248;-59
2023/09/24 09:39:50;;;;;;;2.20;1.20;;;;;;;12.94;75.95;98557.81;6242231;28;20222;-57
2023/09/24 09:42:55;;;;;;;2.40;1.10;;;;;;;12.96;77.29;98561.88;6242839;28;20325;-56
2023/09/24 09:45:57;;;;;;;2.00;1.13;;;;;;;12.98;75.37;98565.13;6242181;28;20232;-57
2023/09/24 09:49:10;;;;;;;2.77;1.27;;;;;;;13.02;75.00;98552.09;6229209;28;20258;-54
2023/09/24 09:52:18;;;;;;;1.53;1.17;;;;;;;13.05;75.98;98557.81;6246482;28;20232;-56
2023/09/24 09:55:22;;;;;;;3.37;1.20;;;;;;;13.06;76.47;98566.63;6244257;28;20227;-55
2023/09/24 09:58:26;;;;;;;1.30;1.20;;;;;;;13.09;76.75;98558.13;6245992;28;20237;-59
2023/09/24 10:01:31;;;;;;;3.03;1.60;;;;;;;13.14;75.57;98563.56;6247007;28;20232;-55
2023/09/24 10:04:35;;;;;;;3.53;1.43;;;;;;;13.04;74.09;98542.78;6249209;28;20231;-56
2023/09/24 10:07:40;;;;;;;2.13;1.13;;;;;;;13.12;75.47;98547.75;6246319;28;20894;-54
2023/09/24 10:10:42;;;;;;;4.47;2.63;;;;;;;13.26;75.47;98563.59;6250997;28;20594;-56
2023/09/24 10:13:52;;;;;;;1.37;1.00;;;;;;;13.28;74.85;98562.28;6242973;28;20258;-57
2023/09/24 10:16:54;;;;;;;3.03;1.27;;;;;;;13.29;74.90;98555.88;6248851;28;20286;-57
2023/09/24 10:20:08;;;;;;;2.60;1.23;;;;;;;13.32;73.99;98559.97;6253192;28;20226;-59
2023/09/24 10:23:28;;;;;;;1.57;1.13;;;;;;;13.34;74.14;98569.34;6251331;28;20680;-57
2023/09/24 10:26:48;;;;;;;1.73;1.00;;;;;;;13.35;74.08;98568.34;6245752;28;20744;-56
2023/09/24 10:29:53;;;;;;;1.83;1.07;;;;;;;13.35;73.38;98567.53;6244611;28;20217;-56
2023/09/24 10:32:56;;;;;;;3.43;1.03;;;;;;;13.35;74.53;98557.63;6249257;28;20239;-57
2023/09/24 10:36:17;;;;;;;2.17;1.10;;;;;;;13.35;74.43;98552.28;6250422;28;20230;-53
2023/09/24 10:39:20;;;;;;;2.90;1.03;;;;;;;13.36;74.73;98545.88;6246110;28;20725;-55
2023/09/24 10:42:22;;;;;;;3.97;1.30;;;;;;;13.15;76.76;98511.69;6244601;28;20292;-54
2023/09/24 10:45:25;;;;;;;1.27;1.00;;;;;;;13.41;74.92;98543.28;6244852;28;20231;-57
2023/09/24 10:48:28;;;;;;;1.60;1.10;;;;;;;13.42;74.41;98542.22;6246619;28;20572;-57
2023/09/24 10:51:58;;;;;;;3.03;1.17;;;;;;;13.43;75.01;98533.13;6241389;28;20227;-57
2023/09/24 10:55:00;;;;;;;4.00;1.10;;;;;;;13.52;72.98;98528.22;6237584;28;20231;-51
2023/09/24 10:58:13;;;;;;;2.07;1.30;;;;;;;13.52;74.55;98538.94;6248809;28;20230;-53
2023/09/24 11:01:16;;;;;;;2.40;1.60;;;;;;;13.57;73.60;98525.63;6243968;28;20230;-53
2023/09/24 11:04:28;;;;;;;1.83;1.10;;;;;;;13.63;73.70;98531.91;6241381;28;20280;-52
2023/09/24 11:07:31;;;;;;;3.37;1.10;;;;;;;13.42;73.43;98491.38;6242909;28;20309;-53
2023/09/24 11:10:34;;;;;;;2.43;1.10;;;;;;;13.67;73.57;98523.13;6242410;28;20582;-56
2023/09/24 11:13:39;;;;;;;3.63;1.27;;;;;;;13.68;73.40;98524.75;6244636;28;20219;-52
2023/09/24 11:16:42;;;;;;;2.40;1.00;;;;;;;13.77;73.07;98529.72;6244805;28;20317;-54
2023/09/24 11:19:49;;;;;;;3.43;1.30;;;;;;;13.76;73.43;98525.44;6248918;28;20300;-52
2023/09/24 11:23:11;;;;;;;2.80;1.50;;;;;;;13.80;71.62;98522.03;6239610;28;20239;-56
2023/09/24 11:26:13;;;;;;;2.00;1.40;;;;;;;13.65;73.55;98503.03;6246988;28;20219;-56
2023/09/24 11:29:16;;;;;;;3.50;1.07;;;;;;;13.80;72.26;98523.91;6248224;28;20227;-55
2023/09/24 11:32:26;;;;;;;2.73;1.20;;;;;;;13.85;73.15;98532.03;6241696;28;20242;-54
2023/09/24 11:35:28;;;;;;;2.33;1.20;;;;;;;13.88;72.80;98532.34;6244332;28;20230;-55
2023/09/24 11:38:32;;;;;;;1.37;0.90;;;;;;;13.90;72.30;98535.59;6230806;28;20325;-53
2023/09/24 11:41:35;;;;;;;1.23;1.03;;;;;;;13.91;74.06;98539.91;6241659;28;20382;-53
2023/09/24 11:44:47;;;;;;;1.93;1.10;;;;;;;13.92;76.01;98544.19;6240692;28;20224;-53
2023/09/24 11:47:50;;;;;;;1.97;0.97;;;;;;;13.94;74.68;98538.63;6237611;28;20235;-52
2023/09/24 11:51:01;;;;;;;2.03;1.40;;;;;;;13.89;74.40;98515.22;6240855;28;20596;-54
2023/09/24 11:54:05;;;;;;;2.07;1.20;;;;;;;14.12;74.74;98519.59;6240403;28;20231;-52
2023/09/24 11:57:09;;;;;;;2.00;1.10;;;;;;;14.07;74.48;98490.06;6244192;28;20246;-53
2023/09/24 12:00:14;;;;;;;4.00;0.90;;;;;;;14.30;72.09;98505.16;6243316;28;20225;-55
2023/09/24 12:03:17;;;;;;;2.37;0.77;;;;;;;14.51;72.05;98511.63;6240955;28;20238;-56
2023/09/24 12:06:20;;;;;;;1.80;0.90;;;;;;;14.65;71.70;98514.78;6240632;28;20231;-55
2023/09/24 12:09:23;;;;;;;6.90;1.40;;;;;;;14.72;70.13;98502.00;6240758;28;20300;-56
2023/09/24 12:12:25;;;;;;;1.23;1.00;;;;;;;14.68;70.10;98488.28;6239090;28;20648;-54
2023/09/24 12:15:29;;;;;;;1.57;1.20;;;;;;;14.79;69.22;98497.28;6236748;28;20230;-56
2023/09/24 12:18:32;;;;;;;3.30;1.10;;;;;;;14.84;68.80;98473.19;6241921;28;20231;-56
2023/09/24 12:21:35;;;;;;;2.50;0.90;;;;;;;14.98;69.91;98500.47;6239703;28;20242;-56
2023/09/24 12:24:37;;;;;;;3.40;1.20;;;;;;;15.08;68.71;98503.28;6237741;28;20226;-56
2023/09/24 12:27:40;;;;;;;5.90;1.27;;;;;;;15.12;70.04;98487.47;6242056;28;21096;-56
2023/09/24 12:30:44;;;;;;;2.60;0.97;;;;;;;15.29;68.63;98498.94;6240234;28;20238;-56
2023/09/24 12:33:47;;;;;;;2.27;1.20;;;;;;;15.23;68.08;98478.47;6234891;28;20234;-56
2023/09/24 12:36:50;;;;;;;1.50;1.00;;;;;;;15.48;65.16;98512.84;6238124;28;20259;-55
2023/09/24 12:39:53;;;;;;;3.80;1.20;;;;;;;15.43;64.85;98504.72;6240251;28;20603;-55
2023/09/24 12:42:56;;;;;;;2.37;1.03;;;;;;;15.54;65.81;98521.75;6237961;28;20782;-57
2023/09/24 12:46:06;;;;;;;3.90;1.00;;;;;;;15.54;64.42;98525.25;6243973;28;20238;-56
2023/09/24 12:49:09;;;;;;;3.30;1.23;;;;;;;15.49;65.09;98503.72;6242617;28;20965;-56
2023/09/24 12:52:12;;;;;;;2.70;1.03;;;;;;;15.42;65.90;98484.31;6241638;28;20848;-56
2023/09/24 12:55:16;;;;;;;1.13;1.00;;;;;;;15.68;65.01;98518.44;6255055;28;20234;-55
2023/09/24 12:58:18;;;;;;;1.40;1.10;;;;;;;15.65;65.69;98512.75;6244231;28;20226;-55
2023/09/24 13:01:22;;;;;;;1.50;1.00;;;;;;;15.70;64.32;98512.81;6237597;28;20326;-54
2023/09/24 13:04:25;;;;;;;2.10;1.20;;;;;;;15.62;65.96;98511.38;6241362;28;20252;-54
2023/09/24 13:07:29;;;;;;;0.87;0.80;;;;;;;15.68;65.03;98513.06;6230563;28;20224;-55
2023/09/24 13:10:33;;;;;;;3.23;1.20;;;;;;;15.49;65.18;98485.72;6240884;28;20219;-55
2023/09/24 13:13:36;;;;;;;1.90;1.00;;;;;;;15.63;64.18;98504.13;6237146;28;20292;-46
2023/09/24 13:16:46;;;;;;;1.70;1.00;;;;;;;15.63;64.98;98504.97;6240054;28;20326;-55
2023/09/24 13:19:50;;;;;;;2.53;1.20;;;;;;;15.67;64.31;98508.75;6238614;28;20236;-54
2023/09/24 13:22:53;;;;;;;1.47;1.10;;;;;;;15.65;65.49;98515.44;6259844;28;20226;-56
2023/09/24 13:25:56;;;;;;;2.70;1.00;;;;;;;15.69;63.64;98505.81;6240446;28;20318;-55
2023/09/24 13:28:59;;;;;;;1.63;0.87;;;;;;;15.66;64.17;98515.22;6243218;28;20314;-56
2023/09/24 13:32:03;;;;;;;1.80;1.13;;;;;;;15.65;64.51;98515.44;6244644;28;20239;-55
2023/09/24 13:35:07;;;;;;;2.27;1.27;;;;;;;15.70;64.41;98518.97;6246864;28;20345;-56
2023/09/24 13:38:11;;;;;;;1.30;1.07;;;;;;;15.72;64.13;98521.44;6248175;28;20344;-57
2023/09/24 13:41:13;;;;;;;1.73;1.07;;;;;;;15.72;63.20;98533.00;6245081;28;20316;-55
2023/09/24 13:44:17;;;;;;;3.47;1.53;;;;;;;15.71;64.04;98528.69;6244051;28;20231;-56
2023/09/24 13:47:20;;;;;;;1.43;1.30;;;;;;;15.76;64.52;98517.16;6243264;28;20696;-57
2023/09/24 13:50:23;;;;;;;2.83;1.30;;;;;;;15.77;64.06;98501.88;6243215;28;20314;-54
2023/09/24 13:53:27;;;;;;;2.77;1.50;;;;;;;15.72;64.85;98502.63;6246738;28;20318;-57
2023/09/24 13:56:30;;;;;;;4.30;1.00;;;;;;;15.74;63.03;98505.84;6238660;28;20265;-55
2023/09/24 13:59:33;;;;;;;3.20;1.40;;;;;;;15.73;63.56;98506.94;6246163;28;20234;-57
2023/09/24 14:02:36;;;;;;;3.70;1.47;;;;;;;15.70;63.10;98516.28;6243346;28;20234;-59
2023/09/24 14:05:40;;;;;;;2.83;1.20;;;;;;;15.72;63.34;98521.44;6242784;28;20233;-56
2023/09/24 14:12:21;;;;;;;2.20;1.00;;;;;;;15.69;63.46;98508.50;6233172;28;20232;-56
2023/09/24 14:15:25;;;;;;;3.30;1.30;;;;;;;15.84;62.96;98502.47;6243990;28;20236;-52
2023/09/24 14:18:29;;;;;;;1.80;1.20;;;;;;;15.83;63.10;98487.41;6243004;28;20589;-54
2023/09/24 14:21:32;;;;;;;1.83;1.50;;;;;;;15.93;62.35;98482.13;6226709;28;20742;-57
2023/09/24 14:24:35;;;;;;;3.23;1.40;;;;;;;15.87;62.57;98485.84;6243428;28;20317;-53
2023/09/24 14:27:42;;;;;;;2.90;1.17;;;;;;;15.83;64.16;98493.59;6243023;28;20232;-53
2023/09/24 14:30:46;;;;;;;1.63;1.37;;;;;;;15.85;62.54;98485.25;6245715;28;20231;-55